createdAt,value
2023-04-21T00:00:47.967Z,11.85
2023-04-21T00:03:39.077Z,11.84
2023-04-21T00:06:31.523Z,11.77
2023-04-21T00:09:21.487Z,11.76
2023-04-21T00:12:10.936Z,11.73
2023-04-21T00:15:00.318Z,11.69
2023-04-21T00:17:49.532Z,11.76
2023-04-21T00:20:39.334Z,11.70
2023-04-21T00:23:29.968Z,11.76
2023-04-21T00:26:20.404Z,11.77
2023-04-21T00:29:11.498Z,11.70
2023-04-21T00:32:02.051Z,11.73
2023-04-21T00:34:53.222Z,11.74
2023-04-21T00:37:42.481Z,11.75
2023-04-21T00:40:35.530Z,11.65
2023-04-21T00:43:26.852Z,11.69
2023-04-21T00:46:17.041Z,11.60
2023-04-21T00:49:08.189Z,11.62
2023-04-21T00:51:57.714Z,11.57
2023-04-21T00:54:47.527Z,11.52
2023-04-21T00:57:39.505Z,11.55
2023-04-21T01:00:29.193Z,11.56
2023-04-21T01:03:19.152Z,11.53
2023-04-21T01:06:09.281Z,11.51
2023-04-21T01:09:00.127Z,11.48
2023-04-21T01:12:03.415Z,11.36
2023-04-21T01:14:54.304Z,11.44
2023-04-21T01:17:44.136Z,11.43
2023-04-21T01:20:36.337Z,11.38
2023-04-21T01:23:30.052Z,11.37
2023-04-21T01:26:21.365Z,11.33
2023-04-21T01:29:10.624Z,11.42
2023-04-21T01:32:00.083Z,11.25
2023-04-21T01:34:50.838Z,11.32
2023-04-21T01:37:40.405Z,11.29
2023-04-21T01:40:31.343Z,11.16
2023-04-21T01:43:24.737Z,11.23
2023-04-21T01:46:14.070Z,11.24
2023-04-21T01:49:03.327Z,11.21
2023-04-21T01:51:52.616Z,11.26
2023-04-21T01:54:42.321Z,11.16
2023-04-21T01:57:33.058Z,11.10
2023-04-21T02:00:22.582Z,11.08
2023-04-21T02:03:12.034Z,11.09
2023-04-21T02:06:01.387Z,11.07
2023-04-21T02:08:50.657Z,11.05
2023-04-21T02:11:39.871Z,11.03
2023-04-21T02:14:30.828Z,10.85
2023-04-21T02:17:20.163Z,10.90
2023-04-21T02:20:12.353Z,10.96
2023-04-21T02:23:01.600Z,10.92
2023-04-21T02:25:50.893Z,10.87
2023-04-21T02:28:40.126Z,10.91
2023-04-21T02:31:31.389Z,10.95
2023-04-21T02:34:20.736Z,11.00
2023-04-21T02:37:10.002Z,10.95
2023-04-21T02:39:59.196Z,10.89
2023-04-21T02:42:48.447Z,10.83
2023-04-21T02:45:38.876Z,10.86
2023-04-21T02:48:29.506Z,10.80
2023-04-21T02:51:18.776Z,10.79
2023-04-21T02:54:08.235Z,10.82
2023-04-21T02:56:57.438Z,10.91
2023-04-21T02:59:46.769Z,10.88
2023-04-21T03:02:36.171Z,10.89
2023-04-21T03:05:27.002Z,10.95
2023-04-21T03:08:16.341Z,10.92
2023-04-21T03:11:05.727Z,10.93
2023-04-21T03:13:54.916Z,10.95
2023-04-21T03:16:44.376Z,10.98
2023-04-21T03:19:34.692Z,10.96
2023-04-21T03:22:25.511Z,10.95
2023-04-21T03:25:14.904Z,10.90
2023-04-21T03:28:04.350Z,10.88
2023-04-21T03:30:53.612Z,10.78
2023-04-21T03:33:42.795Z,10.83
2023-04-21T03:36:32.406Z,10.83
2023-04-21T03:39:23.559Z,10.80
2023-04-21T03:42:15.659Z,10.79
2023-04-21T03:45:06.014Z,10.85
2023-04-21T03:47:57.139Z,10.82
2023-04-21T03:50:46.750Z,10.79
2023-04-21T03:53:36.271Z,10.81
2023-04-21T03:56:27.123Z,10.77
2023-04-21T03:59:17.259Z,10.84
2023-04-21T04:02:06.837Z,10.75
2023-04-21T04:04:56.223Z,10.83
2023-04-21T04:07:46.335Z,10.78
2023-04-21T04:10:35.979Z,10.85
2023-04-21T04:13:27.786Z,10.85
2023-04-21T04:16:17.030Z,10.84
2023-04-21T04:19:06.468Z,10.81
2023-04-21T04:21:55.639Z,10.95
2023-04-21T04:24:45.866Z,10.94
2023-04-21T04:27:35.019Z,11.03
2023-04-21T04:30:28.082Z,10.89
2023-04-21T04:33:17.050Z,11.02
2023-04-21T04:36:06.730Z,11.07
2023-04-21T04:38:56.519Z,11.09
2023-04-21T04:41:47.218Z,11.10
2023-04-21T04:44:37.134Z,11.06
2023-04-21T04:47:27.770Z,11.12
2023-04-21T04:50:17.033Z,11.19
2023-04-21T04:53:06.311Z,11.22
2023-04-21T04:55:55.604Z,11.16
2023-04-21T04:58:46.517Z,11.18
2023-04-21T05:01:35.748Z,11.20
2023-04-21T05:04:27.424Z,11.14
2023-04-21T05:07:17.042Z,11.22
2023-04-21T05:10:07.473Z,11.30
2023-04-21T05:12:56.648Z,11.33
2023-04-21T05:15:45.911Z,11.31
2023-04-21T05:18:35.140Z,11.32
2023-04-21T05:21:28.445Z,11.41
2023-04-21T05:24:23.242Z,11.40
2023-04-21T05:27:12.596Z,11.43
2023-04-21T05:30:01.980Z,11.41
2023-04-21T05:32:51.780Z,11.42
2023-04-21T05:35:41.188Z,11.31
2023-04-21T05:38:31.844Z,11.28
2023-04-21T05:41:22.663Z,11.21
2023-04-21T05:44:11.894Z,11.15
2023-04-21T05:47:01.138Z,11.15
2023-04-21T05:49:53.853Z,11.13
2023-04-21T05:52:43.528Z,11.13
2023-04-21T05:55:36.112Z,11.06
2023-04-21T05:58:25.416Z,11.08
2023-04-21T06:01:15.639Z,11.03
2023-04-21T06:04:05.159Z,11.08
2023-04-21T06:06:54.812Z,10.94
2023-04-21T06:09:44.154Z,11.04
2023-04-21T06:12:34.970Z,11.03
2023-04-21T06:15:24.173Z,11.03
2023-04-21T06:18:13.642Z,11.15
2023-04-21T06:21:02.983Z,11.19
2023-04-21T06:23:52.312Z,11.23
2023-04-21T06:26:41.498Z,11.29
2023-04-21T06:29:32.215Z,11.36
2023-04-21T06:32:21.430Z,11.50
2023-04-21T06:35:11.311Z,11.57
2023-04-21T06:38:00.537Z,11.53
2023-04-21T06:40:49.961Z,11.69
2023-04-21T06:43:39.360Z,11.74
2023-04-21T06:46:30.130Z,11.78
2023-04-21T06:49:19.824Z,11.91
2023-04-21T06:52:09.405Z,11.96
2023-04-21T06:54:58.730Z,12.02
2023-04-21T06:57:48.022Z,12.06
2023-04-21T07:00:37.516Z,12.14
2023-04-21T07:03:28.421Z,12.23
2023-04-21T07:06:17.704Z,12.21
2023-04-21T07:09:07.047Z,12.16
2023-04-21T07:11:56.557Z,12.18
2023-04-21T07:14:45.895Z,12.00
2023-04-21T07:17:35.344Z,12.14
2023-04-21T07:20:26.302Z,12.17
2023-04-21T07:23:15.737Z,12.30
2023-04-21T07:26:05.467Z,12.30
2023-04-21T07:28:55.541Z,12.38
2023-04-21T07:31:46.992Z,12.42
2023-04-21T07:34:36.309Z,12.46
2023-04-21T07:37:27.247Z,12.43
2023-04-21T07:40:16.717Z,12.33
2023-04-21T07:43:06.059Z,12.50
2023-04-21T07:45:55.557Z,12.60
2023-04-21T07:48:45.728Z,12.66
2023-04-21T07:51:35.160Z,12.68
2023-04-21T07:54:25.850Z,12.78
2023-04-21T07:57:15.175Z,13.00
2023-04-21T08:00:04.779Z,13.26
2023-04-21T08:03:01.666Z,13.71
2023-04-21T08:05:51.151Z,14.04
2023-04-21T08:08:40.568Z,14.53
2023-04-21T08:11:31.180Z,14.86
2023-04-21T08:14:20.573Z,14.80
2023-04-21T08:17:10.010Z,14.67
2023-04-21T08:19:59.836Z,14.46
2023-04-21T08:22:49.228Z,14.51
2023-04-21T08:25:38.534Z,14.85
2023-04-21T08:28:29.700Z,15.14
2023-04-21T08:31:19.997Z,15.55
2023-04-21T08:34:09.475Z,15.87
2023-04-21T08:36:58.703Z,16.26
2023-04-21T08:39:48.252Z,16.56
2023-04-21T08:42:39.165Z,16.87
2023-04-21T08:45:30.884Z,17.23
2023-04-21T08:48:23.748Z,17.52
2023-04-21T08:51:13.927Z,17.47
2023-04-21T08:54:03.242Z,16.99
2023-04-21T08:56:58.914Z,16.61
2023-04-21T08:59:53.990Z,16.25
2023-04-21T09:03:01.422Z,15.79
2023-04-21T09:06:00.805Z,15.43
2023-04-21T09:08:56.664Z,15.17
2023-04-21T09:11:46.022Z,14.94
2023-04-21T09:14:35.981Z,14.70
2023-04-21T09:17:32.725Z,14.46
2023-04-21T09:20:25.235Z,14.38
2023-04-21T09:23:15.042Z,14.40
2023-04-21T09:26:05.363Z,14.42
2023-04-21T09:28:55.272Z,14.38
2023-04-21T09:31:46.202Z,14.42
2023-04-21T09:34:42.511Z,14.50
2023-04-21T09:37:35.572Z,14.50
2023-04-21T09:40:25.173Z,14.49
2023-04-21T09:43:14.399Z,14.45
2023-04-21T09:46:07.294Z,14.55
2023-04-21T09:49:00.881Z,14.65
2023-04-21T09:52:16.886Z,14.97
2023-04-21T09:55:04.332Z,15.09
2023-04-21T09:57:58.743Z,15.16
2023-04-21T10:00:48.810Z,15.07
2023-04-21T10:03:41.340Z,15.14
2023-04-21T10:06:32.198Z,15.13
2023-04-21T10:09:25.501Z,15.15
2023-04-21T10:12:18.594Z,15.27
2023-04-21T10:15:28.848Z,15.30
2023-04-21T10:18:20.316Z,15.27
2023-04-21T10:21:14.245Z,15.21
2023-04-21T10:24:08.858Z,15.21
2023-04-21T10:27:02.304Z,15.13
2023-04-21T10:29:57.155Z,15.02
2023-04-21T10:32:46.964Z,14.95
2023-04-21T10:36:01.152Z,15.01
2023-04-21T10:38:57.623Z,15.28
2023-04-21T10:41:47.300Z,15.59
2023-04-21T10:44:36.920Z,15.87
2023-04-21T10:47:34.549Z,16.25
2023-04-21T10:50:26.697Z,16.73
2023-04-21T10:53:18.849Z,17.55
2023-04-21T10:56:09.075Z,18.31
2023-04-21T10:59:00.563Z,18.88
2023-04-21T11:01:49.899Z,19.38
2023-04-21T11:04:46.135Z,19.70
2023-04-21T11:07:35.639Z,19.95
2023-04-21T11:10:25.101Z,20.05
2023-04-21T11:13:14.494Z,20.16
2023-04-21T11:16:06.960Z,20.25
2023-04-21T11:18:58.468Z,20.68
2023-04-21T11:21:50.644Z,20.59
2023-04-21T11:24:45.186Z,20.54
2023-04-21T11:27:34.417Z,20.35
2023-04-21T11:30:32.823Z,20.08
2023-04-21T11:33:22.202Z,19.96
2023-04-21T11:36:11.564Z,19.84
2023-04-21T11:39:08.519Z,19.89
2023-04-21T11:41:57.861Z,20.15
2023-04-21T11:44:47.103Z,20.22
2023-04-21T11:47:37.663Z,20.11
2023-04-21T11:50:33.421Z,19.79
2023-04-21T11:53:22.873Z,19.66
2023-04-21T11:56:13.602Z,19.59
2023-04-21T11:59:07.492Z,20.07
2023-04-21T12:01:59.784Z,20.55
2023-04-21T12:05:00.736Z,21.05
2023-04-21T12:07:52.008Z,21.62
2023-04-21T12:10:47.434Z,21.62
2023-04-21T12:13:41.384Z,21.89
2023-04-21T12:16:31.325Z,21.66
2023-04-21T12:19:37.120Z,21.41
2023-04-21T12:22:26.413Z,20.88
2023-04-21T12:25:15.994Z,20.81
2023-04-21T12:28:05.233Z,20.57
2023-04-21T12:30:56.350Z,20.63
2023-04-21T12:33:45.903Z,20.35
2023-04-21T12:36:36.439Z,20.27
2023-04-21T12:39:25.988Z,20.36
2023-04-21T12:42:15.293Z,20.26
2023-04-21T12:45:05.617Z,20.07
2023-04-21T12:47:56.364Z,20.12
2023-04-21T12:50:46.698Z,19.98
2023-04-21T12:53:36.857Z,19.70
2023-04-21T12:56:26.454Z,19.67
2023-04-21T12:59:15.812Z,19.77
2023-04-21T13:02:05.288Z,19.89
2023-04-21T13:04:55.914Z,19.74
2023-04-21T13:07:45.138Z,20.04
2023-04-21T13:10:34.372Z,20.33
2023-04-21T13:13:23.587Z,21.03
2023-04-21T13:16:12.835Z,21.53
2023-04-21T13:19:02.088Z,21.90
2023-04-21T13:21:54.147Z,22.12
2023-04-21T13:24:43.970Z,22.38
2023-04-21T13:27:33.731Z,22.49
2023-04-21T13:30:22.938Z,22.64
2023-04-21T13:33:15.003Z,22.66
2023-04-21T13:36:04.707Z,22.09
2023-04-21T13:38:56.407Z,21.97
2023-04-21T13:41:45.647Z,21.91
2023-04-21T13:44:35.018Z,21.97
2023-04-21T13:47:25.383Z,21.95
2023-04-21T13:50:14.722Z,21.86
2023-04-21T13:53:04.180Z,21.70
2023-04-21T13:55:57.222Z,21.42
2023-04-21T13:58:46.724Z,21.23
2023-04-21T14:01:36.019Z,20.64
2023-04-21T14:04:25.706Z,20.31
2023-04-21T14:07:18.123Z,20.42
2023-04-21T14:10:09.040Z,20.46
2023-04-21T14:12:59.685Z,20.67
2023-04-21T14:15:48.887Z,21.24
2023-04-21T14:18:44.468Z,21.69
2023-04-21T14:21:33.766Z,22.09
2023-04-21T14:24:23.026Z,21.92
2023-04-21T14:27:12.397Z,20.95
2023-04-21T14:30:03.190Z,20.26
2023-04-21T14:32:52.571Z,19.99
2023-04-21T14:35:42.240Z,19.48
2023-04-21T14:38:31.793Z,18.97
2023-04-21T14:41:21.146Z,18.68
2023-04-21T14:44:10.406Z,18.63
2023-04-21T14:47:09.132Z,18.33
2023-04-21T14:49:59.593Z,18.15
2023-04-21T14:52:49.836Z,17.97
2023-04-21T14:55:39.257Z,17.66
2023-04-21T14:58:28.540Z,17.54
2023-04-21T15:01:17.919Z,17.31
2023-04-21T15:04:09.437Z,17.09
2023-04-21T15:06:59.041Z,16.78
2023-04-21T15:09:48.742Z,16.69
2023-04-21T15:12:38.741Z,16.71
2023-04-21T15:15:28.126Z,16.74
2023-04-21T15:18:17.509Z,16.71
2023-04-21T15:21:08.521Z,16.83
2023-04-21T15:23:57.976Z,16.74
2023-04-21T15:26:47.286Z,16.73
2023-04-21T15:29:36.737Z,16.75
2023-04-21T15:32:26.390Z,16.84
2023-04-21T15:35:15.847Z,17.06
2023-04-21T15:38:07.268Z,17.12
2023-04-21T15:41:01.277Z,16.99
2023-04-21T15:43:50.992Z,17.12
2023-04-21T15:46:40.310Z,17.06
2023-04-21T15:49:29.943Z,17.12
2023-04-21T15:52:19.201Z,17.24
2023-04-21T15:55:11.777Z,17.34
2023-04-21T15:58:00.970Z,17.41
2023-04-21T16:00:50.268Z,17.49
2023-04-21T16:03:40.299Z,17.61
2023-04-21T16:06:31.549Z,17.70
2023-04-21T16:09:21.923Z,17.85
2023-04-21T16:12:12.743Z,17.74
2023-04-21T16:15:16.117Z,17.89
2023-04-21T16:18:11.526Z,18.05
2023-04-21T16:21:00.959Z,18.05
2023-04-21T16:23:50.578Z,17.91
2023-04-21T16:26:39.999Z,17.97
2023-04-21T16:29:31.097Z,17.82
2023-04-21T16:32:20.477Z,17.92
2023-04-21T16:35:11.655Z,17.91
2023-04-21T16:38:00.990Z,17.81
2023-04-21T16:40:50.508Z,17.78
2023-04-21T16:43:39.875Z,17.80
2023-04-21T16:46:30.704Z,17.67
2023-04-21T16:49:20.023Z,17.37
2023-04-21T16:52:11.266Z,17.20
2023-04-21T16:55:00.627Z,17.01
2023-04-21T16:57:50.034Z,17.16
2023-04-21T17:00:39.459Z,17.23
2023-04-21T17:03:30.361Z,17.19
2023-04-21T17:06:21.350Z,17.14
2023-04-21T17:09:11.300Z,16.88
2023-04-21T17:12:01.306Z,16.73
2023-04-21T17:14:50.650Z,16.70
2023-04-21T17:17:43.688Z,16.75
2023-04-21T17:20:35.329Z,16.83
2023-04-21T17:23:24.962Z,16.92
2023-04-21T17:26:15.332Z,16.82
2023-04-21T17:29:05.147Z,16.69
2023-04-21T17:31:54.397Z,16.86
2023-04-21T17:34:43.617Z,16.91
2023-04-21T17:37:35.264Z,16.69
2023-04-21T17:40:24.962Z,16.70
2023-04-21T17:43:14.395Z,16.50
2023-04-21T17:46:03.783Z,16.44
2023-04-21T17:48:53.055Z,16.27
2023-04-21T17:51:42.324Z,16.32
2023-04-21T17:54:33.149Z,16.22
2023-04-21T17:57:22.458Z,15.98
2023-04-21T18:00:13.698Z,15.99
2023-04-21T18:03:03.332Z,15.98
2023-04-21T18:05:52.793Z,16.00
2023-04-21T18:08:42.328Z,16.04
2023-04-21T18:11:33.222Z,16.02
2023-04-21T18:14:22.528Z,15.97
2023-04-21T18:17:11.830Z,15.90
2023-04-21T18:20:01.045Z,15.77
2023-04-21T18:22:51.763Z,15.69
2023-04-21T18:25:42.936Z,15.81
2023-04-21T18:28:34.119Z,15.76
2023-04-21T18:31:26.289Z,15.78
2023-04-21T18:34:16.620Z,15.74
2023-04-21T18:37:05.894Z,15.73
2023-04-21T18:39:55.137Z,15.73
2023-04-21T18:42:44.339Z,15.59
2023-04-21T18:45:35.297Z,15.47
2023-04-21T18:48:24.525Z,15.32
2023-04-21T18:51:14.412Z,15.27
2023-04-21T18:54:04.939Z,15.15
2023-04-21T18:56:54.236Z,15.29
2023-04-21T18:59:43.556Z,15.20
2023-04-21T19:02:34.590Z,15.25
2023-04-21T19:05:24.037Z,15.07
2023-04-21T19:08:13.308Z,15.06
2023-04-21T19:11:03.057Z,14.97
2023-04-21T19:13:52.395Z,14.81
2023-04-21T19:16:41.768Z,14.79
2023-04-21T19:19:32.572Z,14.76
2023-04-21T19:22:24.474Z,14.70
2023-04-21T19:25:13.850Z,14.63
2023-04-21T19:28:04.014Z,14.59
2023-04-21T19:30:53.476Z,14.43
2023-04-21T19:33:42.920Z,14.51
2023-04-21T19:36:33.734Z,14.45
2023-04-21T19:39:22.996Z,14.31
2023-04-21T19:42:12.469Z,14.27
2023-04-21T19:45:02.069Z,14.22
2023-04-21T19:47:51.712Z,14.06
2023-04-21T19:50:41.067Z,14.03
2023-04-21T19:53:31.877Z,13.95
2023-04-21T19:56:21.360Z,13.95
2023-04-21T19:59:10.632Z,13.87
2023-04-21T20:02:00.069Z,13.80
2023-04-21T20:04:50.846Z,13.74
2023-04-21T20:07:40.782Z,13.74
2023-04-21T20:10:31.650Z,13.76
2023-04-21T20:13:21.059Z,13.65
2023-04-21T20:16:10.552Z,13.81
2023-04-21T20:19:00.104Z,13.76
2023-04-21T20:21:49.836Z,13.80
2023-04-21T20:24:39.108Z,13.79
2023-04-21T20:27:29.837Z,13.80
2023-04-21T20:30:19.352Z,13.77
2023-04-21T20:33:08.714Z,13.77
2023-04-21T20:35:58.224Z,13.77
2023-04-21T20:38:49.615Z,13.77
2023-04-21T20:41:39.233Z,13.71
2023-04-21T20:44:31.513Z,13.74
2023-04-21T20:47:21.862Z,13.64
2023-04-21T20:50:11.999Z,13.55
2023-04-21T20:53:02.238Z,13.63
2023-04-21T20:55:51.653Z,13.54
2023-04-21T20:58:40.881Z,13.59
2023-04-21T21:01:36.788Z,13.45
2023-04-21T21:04:26.244Z,13.43
2023-04-21T21:07:15.804Z,13.44
2023-04-21T21:10:05.677Z,13.37
2023-04-21T21:12:54.951Z,13.33
2023-04-21T21:15:44.295Z,13.36
2023-04-21T21:18:35.990Z,13.37
2023-04-21T21:21:25.310Z,13.34
2023-04-21T21:24:14.688Z,13.31
2023-04-21T21:27:04.234Z,13.35
2023-04-21T21:29:53.482Z,13.34
2023-04-21T21:32:42.822Z,13.36
2023-04-21T21:35:34.312Z,13.26
2023-04-21T21:38:23.789Z,13.40
2023-04-21T21:41:14.112Z,13.38
2023-04-21T21:44:03.645Z,13.32
2023-04-21T21:46:53.100Z,13.35
2023-04-21T21:49:42.356Z,13.33
2023-04-21T21:52:33.220Z,13.36
2023-04-21T21:55:22.689Z,13.29
2023-04-21T21:58:11.989Z,13.30
2023-04-21T22:01:01.239Z,13.26
2023-04-21T22:03:52.109Z,13.29
2023-04-21T22:06:41.420Z,13.36
2023-04-21T22:09:32.255Z,13.25
2023-04-21T22:12:21.573Z,13.29
2023-04-21T22:15:12.583Z,13.38
2023-04-21T22:18:02.204Z,13.34
2023-04-21T22:20:51.627Z,13.40
2023-04-21T22:23:40.900Z,13.45
2023-04-21T22:26:31.591Z,13.45
2023-04-21T22:29:21.243Z,13.46
2023-04-21T22:32:11.962Z,13.37
2023-04-21T22:35:02.164Z,13.44
2023-04-21T22:37:51.607Z,13.49
2023-04-21T22:40:40.966Z,13.51
2023-04-21T22:43:31.654Z,13.52
2023-04-21T22:46:21.123Z,13.43
2023-04-21T22:49:10.600Z,13.54
2023-04-21T22:51:59.802Z,13.58
2023-04-21T22:54:49.845Z,13.59
2023-04-21T22:57:39.286Z,13.55
2023-04-21T23:00:30.106Z,13.54
2023-04-21T23:03:19.593Z,13.53
2023-04-21T23:06:09.521Z,13.47
2023-04-21T23:08:58.775Z,13.51
2023-04-21T23:11:48.081Z,13.52
2023-04-21T23:14:37.327Z,13.46
2023-04-21T23:17:28.024Z,13.36
2023-04-21T23:20:17.550Z,13.52
2023-04-21T23:23:07.024Z,13.48
2023-04-21T23:25:56.262Z,13.43
2023-04-21T23:28:45.581Z,13.46
2023-04-21T23:31:34.907Z,13.44
2023-04-21T23:34:25.572Z,13.46
2023-04-21T23:37:14.739Z,13.36
2023-04-21T23:40:09.311Z,13.36
2023-04-21T23:42:58.624Z,13.32
2023-04-21T23:45:48.195Z,13.29
2023-04-21T23:48:37.617Z,13.27
2023-04-21T23:51:28.852Z,13.16
2023-04-21T23:54:18.108Z,13.17
2023-04-21T23:57:07.780Z,13.19
2023-04-21T23:59:56.988Z,13.19
